EZY46MU EGNT-LGKR
Flight info
| Callsign | EZY46MU |
|---|---|
| Flight time | 3h 9m |
| Altitude | 35000 |
| Route | NATEB DCT GIVEM DCT ROLUM DCT LONAM DCT SOGPO DCT MISGO DCT ASBON DCT TUSUK DCT UTABA DCT BEMKI DCT ELMEM DCT DIRAB DCT AGOMO DCT RUPAX DCT OSDAX DCT ROBOT DCT KAPPO DCT TIGRA |
| Aircraft | A320/M-SDE3FGHIRWY/LB1 |
Departure
| Time | 2026-05-04 06:00 |
|---|---|
| Airport | Newcastle International Airport (EGNT) |
Arrival
| Time | 2026-05-04 09:10 |
|---|---|
| Airport | Corfu Ioannis Kapodistrias International Airport (LGKR) |
| Time | Latitude | Longitude | Altitude | Speed | Heading |
|---|---|---|---|---|---|
| 2026-05-04 04:41 | 55.03577 | -1.70936 | 268 ft | 0 kts | 274° |
| 2026-05-04 05:47 | 55.03577 | -1.70932 | 267 ft | 2 kts | 274° |
| 2026-05-04 05:47 | 55.03575 | -1.70893 | 267 ft | 3 kts | 280° |
| 2026-05-04 05:48 | 55.03568 | -1.70856 | 267 ft | 3 kts | 311° |
| 2026-05-04 05:48 | 55.03557 | -1.70842 | 267 ft | 0 kts | 348° |
| 2026-05-04 05:48 | 55.03575 | -1.70845 | 267 ft | 3 kts | 358° |
| 2026-05-04 05:48 | 55.03588 | -1.70844 | 267 ft | 0 kts | 4° |
| 2026-05-04 05:52 | 55.03594 | -1.70840 | 267 ft | 3 kts | 21° |
| 2026-05-04 05:52 | 55.03597 | -1.70767 | 267 ft | 10 kts | 95° |
| 2026-05-04 05:52 | 55.03591 | -1.70634 | 267 ft | 10 kts | 93° |
| 2026-05-04 05:53 | 55.03596 | -1.70523 | 267 ft | 8 kts | 78° |
| 2026-05-04 05:54 | 55.03781 | -1.69879 | 259 ft | 10 kts | 83° |
| 2026-05-04 05:55 | 55.03792 | -1.69759 | 258 ft | 9 kts | 79° |
| 2026-05-04 05:55 | 55.03813 | -1.69617 | 257 ft | 15 kts | 73° |
| 2026-05-04 05:55 | 55.03858 | -1.69419 | 255 ft | 19 kts | 65° |
| 2026-05-04 05:55 | 55.03916 | -1.69199 | 253 ft | 21 kts | 65° |
| 2026-05-04 05:56 | 55.03981 | -1.68954 | 251 ft | 23 kts | 65° |
| 2026-05-04 05:56 | 55.04047 | -1.68707 | 249 ft | 21 kts | 65° |
| 2026-05-04 05:56 | 55.04110 | -1.68467 | 248 ft | 22 kts | 65° |
| 2026-05-04 05:56 | 55.04177 | -1.68215 | 247 ft | 23 kts | 65° |
| 2026-05-04 05:57 | 55.04244 | -1.67962 | 247 ft | 20 kts | 65° |
| 2026-05-04 05:57 | 55.04298 | -1.67758 | 245 ft | 17 kts | 64° |
| 2026-05-04 05:57 | 55.04331 | -1.67621 | 243 ft | 11 kts | 79° |
| 2026-05-04 05:57 | 55.04329 | -1.67491 | 242 ft | 10 kts | 93° |
| 2026-05-04 05:58 | 55.04302 | -1.67385 | 241 ft | 9 kts | 142° |
| 2026-05-04 05:58 | 55.04248 | -1.67359 | 241 ft | 7 kts | 169° |
| 2026-05-04 05:58 | 55.04217 | -1.67386 | 242 ft | 4 kts | 229° |
| 2026-05-04 05:58 | 55.04212 | -1.67402 | 242 ft | 0 kts | 243° |
| 2026-05-04 05:59 | 55.04197 | -1.67457 | 243 ft | 24 kts | 244° |
| 2026-05-04 05:59 | 55.04016 | -1.68146 | 248 ft | 98 kts | 245° |
| 2026-05-04 05:59 | 55.03643 | -1.69545 | 258 ft | 154 kts | 245° |
| 2026-05-04 06:00 | 55.03166 | -1.71343 | 800 ft | 158 kts | 245° |
| 2026-05-04 06:00 | 55.02721 | -1.73024 | 1716 ft | 148 kts | 244° |
| 2026-05-04 06:00 | 55.02308 | -1.74597 | 2352 ft | 140 kts | 244° |
| 2026-05-04 06:00 | 55.01874 | -1.76193 | 2669 ft | 153 kts | 239° |
| 2026-05-04 06:01 | 55.01298 | -1.77711 | 3257 ft | 143 kts | 229° |
| 2026-05-04 06:01 | 55.00547 | -1.78977 | 3473 ft | 166 kts | 217° |
| 2026-05-04 06:03 | 54.91300 | -1.82922 | 5884 ft | 265 kts | 189° |
| 2026-05-04 06:03 | 54.89424 | -1.83219 | 6485 ft | 275 kts | 184° |
| 2026-05-04 06:05 | 54.75144 | -1.81052 | 10526 ft | 339 kts | 175° |
| 2026-05-04 06:05 | 54.70331 | -1.80626 | 11612 ft | 351 kts | 187° |
| 2026-05-04 06:05 | 54.67914 | -1.81324 | 12258 ft | 353 kts | 192° |
| 2026-05-04 06:06 | 54.65487 | -1.82102 | 12905 ft | 356 kts | 192° |
| 2026-05-04 06:06 | 54.63040 | -1.82881 | 13541 ft | 360 kts | 192° |
| 2026-05-04 06:06 | 54.60568 | -1.83664 | 14137 ft | 363 kts | 191° |
| 2026-05-04 06:06 | 54.58073 | -1.84451 | 14702 ft | 366 kts | 191° |
| 2026-05-04 06:07 | 54.55564 | -1.85242 | 15052 ft | 368 kts | 191° |
| 2026-05-04 06:07 | 54.53034 | -1.86039 | 15638 ft | 370 kts | 191° |
| 2026-05-04 06:07 | 54.50493 | -1.86838 | 16212 ft | 373 kts | 191° |
| 2026-05-04 06:07 | 54.47933 | -1.87641 | 16766 ft | 375 kts | 191° |
| 2026-05-04 06:08 | 54.45354 | -1.88452 | 17319 ft | 378 kts | 191° |
| 2026-05-04 06:08 | 54.42761 | -1.89266 | 17860 ft | 380 kts | 191° |
| 2026-05-04 06:08 | 54.40148 | -1.90083 | 18392 ft | 383 kts | 191° |
| 2026-05-04 06:08 | 54.37519 | -1.90901 | 18846 ft | 386 kts | 191° |
| 2026-05-04 06:09 | 54.34870 | -1.91722 | 19290 ft | 388 kts | 191° |
| 2026-05-04 06:09 | 54.32200 | -1.92552 | 19718 ft | 391 kts | 191° |
| 2026-05-04 06:11 | 54.13801 | -1.86603 | 22657 ft | 409 kts | 148° |
| 2026-05-04 06:11 | 54.11360 | -1.84058 | 23026 ft | 412 kts | 148° |
| 2026-05-04 06:13 | 53.93912 | -1.65962 | 25432 ft | 427 kts | 147° |
| 2026-05-04 06:14 | 53.78449 | -1.50117 | 27211 ft | 439 kts | 147° |
| 2026-05-04 06:14 | 53.75826 | -1.47442 | 27500 ft | 441 kts | 147° |
| 2026-05-04 06:15 | 53.73189 | -1.44759 | 27798 ft | 443 kts | 148° |
| 2026-05-04 06:15 | 53.70542 | -1.42068 | 28101 ft | 445 kts | 148° |
| 2026-05-04 06:15 | 53.67885 | -1.39377 | 28382 ft | 447 kts | 148° |
| 2026-05-04 06:15 | 53.65216 | -1.36677 | 28663 ft | 448 kts | 148° |
| 2026-05-04 06:16 | 53.62535 | -1.33972 | 28919 ft | 450 kts | 149° |
| 2026-05-04 06:16 | 53.59707 | -1.31685 | 29157 ft | 453 kts | 159° |
| 2026-05-04 06:16 | 53.56690 | -1.30153 | 29405 ft | 455 kts | 167° |
| 2026-05-04 06:16 | 53.53545 | -1.29422 | 29634 ft | 457 kts | 176° |
| 2026-05-04 06:17 | 53.50378 | -1.28904 | 29860 ft | 459 kts | 168° |
| 2026-05-04 06:17 | 53.47322 | -1.27401 | 30075 ft | 459 kts | 156° |
| 2026-05-04 06:17 | 53.44525 | -1.24834 | 30283 ft | 458 kts | 143° |
| 2026-05-04 06:17 | 53.42135 | -1.21336 | 30551 ft | 456 kts | 131° |
| 2026-05-04 06:18 | 53.40252 | -1.17091 | 30805 ft | 453 kts | 118° |
| 2026-05-04 06:18 | 53.38954 | -1.12302 | 31048 ft | 451 kts | 107° |
| 2026-05-04 06:18 | 53.38029 | -1.07276 | 31292 ft | 451 kts | 105° |
| 2026-05-04 06:20 | 53.31503 | -0.72034 | 32989 ft | 453 kts | 107° |
| 2026-05-04 06:20 | 53.30566 | -0.67011 | 33232 ft | 453 kts | 107° |
| 2026-05-04 06:21 | 53.26797 | -0.46953 | 34225 ft | 452 kts | 107° |
| 2026-05-04 06:21 | 53.25847 | -0.41948 | 34445 ft | 452 kts | 107° |
| 2026-05-04 06:22 | 53.24892 | -0.36947 | 34630 ft | 452 kts | 108° |
| 2026-05-04 06:22 | 53.23936 | -0.31947 | 34821 ft | 452 kts | 108° |
| 2026-05-04 06:25 | 53.11367 | 0.32841 | 35003 ft | 453 kts | 109° |
| 2026-05-04 06:26 | 53.09391 | 0.42785 | 35008 ft | 453 kts | 109° |
| 2026-05-04 06:26 | 53.07419 | 0.52719 | 34994 ft | 453 kts | 110° |
| 2026-05-04 06:27 | 53.02452 | 0.77526 | 34990 ft | 455 kts | 110° |
| 2026-05-04 06:28 | 53.00414 | 0.87541 | 34995 ft | 455 kts | 110° |
| 2026-05-04 06:28 | 52.98403 | 0.97426 | 35004 ft | 455 kts | 110° |
| 2026-05-04 06:29 | 52.96662 | 1.05716 | 34986 ft | 454 kts | 112° |
| 2026-05-04 06:29 | 52.94443 | 1.15520 | 34981 ft | 454 kts | 113° |
| 2026-05-04 06:30 | 52.91808 | 1.26878 | 34983 ft | 454 kts | 112° |
| 2026-05-04 06:30 | 52.89922 | 1.35083 | 34986 ft | 455 kts | 112° |
| 2026-05-04 06:31 | 52.87685 | 1.44878 | 34991 ft | 455 kts | 112° |
| 2026-05-04 06:31 | 52.85442 | 1.54677 | 34971 ft | 455 kts | 113° |
| 2026-05-04 06:33 | 52.76337 | 1.93818 | 34976 ft | 457 kts | 113° |
| 2026-05-04 06:34 | 52.74043 | 2.03585 | 34964 ft | 457 kts | 114° |
| 2026-05-04 06:34 | 52.71739 | 2.13360 | 34967 ft | 457 kts | 114° |
| 2026-05-04 06:36 | 52.62413 | 2.52345 | 34960 ft | 458 kts | 115° |
| 2026-05-04 06:37 | 52.60054 | 2.62096 | 34959 ft | 459 kts | 115° |
| 2026-05-04 06:37 | 52.57686 | 2.71856 | 34964 ft | 460 kts | 115° |
| 2026-05-04 06:38 | 52.55307 | 2.81618 | 34968 ft | 460 kts | 115° |
| 2026-05-04 06:40 | 52.43207 | 3.18330 | 34939 ft | 459 kts | 123° |
| 2026-05-04 06:40 | 52.40111 | 3.27488 | 34945 ft | 459 kts | 123° |
| 2026-05-04 06:41 | 52.37011 | 3.36640 | 34952 ft | 460 kts | 123° |
| 2026-05-04 06:41 | 52.33899 | 3.45782 | 34954 ft | 460 kts | 123° |
| 2026-05-04 06:42 | 52.30769 | 3.54919 | 34941 ft | 461 kts | 124° |
| 2026-05-04 06:44 | 52.18135 | 3.91513 | 34958 ft | 463 kts | 124° |
| 2026-05-04 06:44 | 52.14952 | 4.00642 | 34946 ft | 464 kts | 124° |
| 2026-05-04 06:45 | 52.11785 | 4.09708 | 34952 ft | 464 kts | 124° |
| 2026-05-04 06:45 | 52.08586 | 4.18824 | 34951 ft | 464 kts | 124° |
| 2026-05-04 06:46 | 52.05376 | 4.27931 | 34957 ft | 464 kts | 124° |
| 2026-05-04 06:46 | 52.02159 | 4.37038 | 34976 ft | 464 kts | 124° |
| 2026-05-04 06:48 | 51.89222 | 4.73313 | 34965 ft | 462 kts | 125° |
| 2026-05-04 06:50 | 51.76287 | 5.09068 | 34977 ft | 462 kts | 126° |
| 2026-05-04 06:51 | 51.73010 | 5.18054 | 34976 ft | 461 kts | 126° |
| 2026-05-04 06:51 | 51.69744 | 5.26962 | 34978 ft | 461 kts | 126° |
| 2026-05-04 06:52 | 51.66476 | 5.35842 | 34954 ft | 460 kts | 126° |
| 2026-05-04 06:52 | 51.63236 | 5.44637 | 34977 ft | 459 kts | 126° |
| 2026-05-04 06:53 | 51.59951 | 5.53523 | 34986 ft | 458 kts | 126° |
| 2026-05-04 06:53 | 51.56708 | 5.62261 | 34985 ft | 458 kts | 126° |
| 2026-05-04 06:54 | 51.53442 | 5.71042 | 34988 ft | 458 kts | 126° |
| 2026-05-04 06:54 | 51.50140 | 5.79857 | 34975 ft | 457 kts | 127° |
| 2026-05-04 06:55 | 51.46877 | 5.88523 | 34979 ft | 457 kts | 127° |
| 2026-05-04 06:55 | 51.43593 | 5.97242 | 34986 ft | 456 kts | 127° |
| 2026-05-04 06:57 | 51.30431 | 6.31919 | 34981 ft | 455 kts | 127° |
| 2026-05-04 06:58 | 51.27132 | 6.40530 | 34988 ft | 454 kts | 127° |
| 2026-05-04 06:58 | 51.23830 | 6.49136 | 34990 ft | 454 kts | 127° |
| 2026-05-04 06:59 | 51.20526 | 6.57714 | 35012 ft | 454 kts | 127° |
| 2026-05-04 06:59 | 51.17215 | 6.66270 | 34993 ft | 453 kts | 127° |
| 2026-05-04 07:01 | 51.03963 | 7.00246 | 35010 ft | 451 kts | 127° |
| 2026-05-04 07:02 | 51.00645 | 7.08679 | 35012 ft | 450 kts | 127° |
| 2026-05-04 07:02 | 50.97317 | 7.17103 | 35003 ft | 450 kts | 128° |
| 2026-05-04 07:03 | 50.93984 | 7.25511 | 35001 ft | 450 kts | 128° |
| 2026-05-04 07:03 | 50.90654 | 7.33913 | 35000 ft | 450 kts | 128° |
| 2026-05-04 07:04 | 50.87318 | 7.42295 | 35001 ft | 450 kts | 128° |
| 2026-05-04 07:04 | 50.83976 | 7.50678 | 35000 ft | 450 kts | 128° |
| 2026-05-04 07:05 | 50.80624 | 7.59029 | 34990 ft | 450 kts | 128° |
| 2026-05-04 07:05 | 50.77263 | 7.67388 | 34995 ft | 451 kts | 128° |
| 2026-05-04 07:06 | 50.72197 | 7.79914 | 35001 ft | 451 kts | 128° |
| 2026-05-04 07:07 | 50.68809 | 7.88260 | 35010 ft | 452 kts | 128° |
| 2026-05-04 07:09 | 50.54464 | 8.20672 | 34985 ft | 450 kts | 134° |
| 2026-05-04 07:09 | 50.50550 | 8.28346 | 34993 ft | 450 kts | 134° |
| 2026-05-04 07:10 | 50.46632 | 8.36015 | 35001 ft | 450 kts | 134° |
| 2026-05-04 07:12 | 50.30430 | 8.65782 | 35008 ft | 446 kts | 139° |
| 2026-05-04 07:12 | 50.26129 | 8.72753 | 35016 ft | 446 kts | 139° |
| 2026-05-04 07:13 | 50.22557 | 8.78654 | 35019 ft | 446 kts | 138° |
| 2026-05-04 07:13 | 50.18324 | 8.85730 | 35020 ft | 446 kts | 138° |
| 2026-05-04 07:14 | 50.07702 | 9.03331 | 35020 ft | 445 kts | 139° |
| 2026-05-04 07:15 | 50.03510 | 9.10230 | 35005 ft | 445 kts | 138° |
| 2026-05-04 07:15 | 49.99221 | 9.17273 | 34997 ft | 446 kts | 138° |
| 2026-05-04 07:16 | 49.94948 | 9.24269 | 35004 ft | 446 kts | 138° |
| 2026-05-04 07:16 | 49.90669 | 9.31258 | 35011 ft | 447 kts | 138° |
| 2026-05-04 07:17 | 49.86380 | 9.38249 | 35012 ft | 447 kts | 138° |
| 2026-05-04 07:17 | 49.82084 | 9.45229 | 35023 ft | 448 kts | 139° |
| 2026-05-04 07:18 | 49.77780 | 9.52193 | 35014 ft | 448 kts | 139° |
| 2026-05-04 07:18 | 49.73471 | 9.59145 | 35011 ft | 448 kts | 138° |
| 2026-05-04 07:19 | 49.69157 | 9.66089 | 35021 ft | 448 kts | 138° |
| 2026-05-04 07:19 | 49.64838 | 9.73019 | 35029 ft | 448 kts | 139° |
| 2026-05-04 07:20 | 49.60518 | 9.79936 | 35036 ft | 448 kts | 138° |
| 2026-05-04 07:20 | 49.56200 | 9.86848 | 35041 ft | 447 kts | 139° |
| 2026-05-04 07:22 | 49.38832 | 10.14396 | 35039 ft | 449 kts | 138° |
| 2026-05-04 07:23 | 49.34475 | 10.21265 | 35043 ft | 449 kts | 138° |
| 2026-05-04 07:23 | 49.30111 | 10.28124 | 35039 ft | 449 kts | 138° |
| 2026-05-04 07:24 | 49.25742 | 10.34970 | 35040 ft | 450 kts | 138° |
| 2026-05-04 07:24 | 49.20889 | 10.40814 | 35050 ft | 441 kts | 154° |
| 2026-05-04 07:26 | 48.99750 | 10.60006 | 35058 ft | 442 kts | 153° |
| 2026-05-04 07:27 | 48.94461 | 10.64791 | 35053 ft | 443 kts | 153° |
| 2026-05-04 07:27 | 48.89156 | 10.69562 | 35054 ft | 443 kts | 153° |
| 2026-05-04 07:28 | 48.83846 | 10.74321 | 35054 ft | 443 kts | 153° |
| 2026-05-04 07:28 | 48.79032 | 10.80254 | 35034 ft | 452 kts | 135° |
| 2026-05-04 07:29 | 48.74831 | 10.87353 | 35033 ft | 452 kts | 136° |
| 2026-05-04 07:29 | 48.70609 | 10.94425 | 35029 ft | 453 kts | 136° |
| 2026-05-04 07:30 | 48.66373 | 11.01485 | 35031 ft | 453 kts | 136° |
| 2026-05-04 07:30 | 48.62129 | 11.08546 | 35036 ft | 454 kts | 136° |
| 2026-05-04 07:31 | 48.57882 | 11.15610 | 35038 ft | 454 kts | 136° |
| 2026-05-04 07:33 | 48.40850 | 11.43734 | 35033 ft | 454 kts | 136° |
| 2026-05-04 07:33 | 48.36580 | 11.50738 | 35036 ft | 454 kts | 136° |
| 2026-05-04 07:34 | 48.32297 | 11.57728 | 35039 ft | 455 kts | 136° |
| 2026-05-04 07:34 | 48.28004 | 11.64707 | 35041 ft | 455 kts | 136° |
| 2026-05-04 07:35 | 48.23613 | 11.71521 | 35034 ft | 453 kts | 140° |
| 2026-05-04 07:35 | 48.18960 | 11.77886 | 35035 ft | 453 kts | 142° |
| 2026-05-04 07:36 | 48.14235 | 11.84128 | 35037 ft | 453 kts | 142° |
| 2026-05-04 07:38 | 47.95580 | 12.09569 | 35033 ft | 454 kts | 141° |
| 2026-05-04 07:38 | 47.90894 | 12.15884 | 35043 ft | 454 kts | 141° |
| 2026-05-04 07:39 | 47.86213 | 12.22203 | 35046 ft | 454 kts | 141° |
| 2026-05-04 07:39 | 47.81537 | 12.28522 | 35050 ft | 454 kts | 141° |
| 2026-05-04 07:40 | 47.76857 | 12.34865 | 35037 ft | 455 kts | 140° |
| 2026-05-04 07:40 | 47.72167 | 12.41202 | 35040 ft | 456 kts | 140° |
| 2026-05-04 07:41 | 47.67469 | 12.47538 | 35045 ft | 456 kts | 141° |
| 2026-05-04 07:41 | 47.62768 | 12.53867 | 35050 ft | 456 kts | 141° |
| 2026-05-04 07:42 | 47.58064 | 12.60188 | 35055 ft | 457 kts | 141° |
| 2026-05-04 07:42 | 47.53350 | 12.66491 | 35049 ft | 457 kts | 141° |
| 2026-05-04 07:43 | 47.48615 | 12.72766 | 35047 ft | 457 kts | 141° |
| 2026-05-04 07:43 | 47.43909 | 12.78978 | 35050 ft | 457 kts | 141° |
| 2026-05-04 07:44 | 47.39173 | 12.85225 | 35062 ft | 457 kts | 141° |
| 2026-05-04 07:44 | 47.34432 | 12.91467 | 35066 ft | 456 kts | 141° |
| 2026-05-04 07:45 | 47.29362 | 12.96978 | 35074 ft | 452 kts | 149° |
| 2026-05-04 07:45 | 47.24128 | 13.02117 | 35084 ft | 452 kts | 149° |
| 2026-05-04 07:46 | 47.18895 | 13.07241 | 35082 ft | 452 kts | 148° |
| 2026-05-04 07:46 | 47.13655 | 13.12364 | 35084 ft | 452 kts | 149° |
| 2026-05-04 07:47 | 47.08410 | 13.17487 | 35092 ft | 453 kts | 149° |
| 2026-05-04 07:49 | 46.87490 | 13.37739 | 35113 ft | 450 kts | 149° |
| 2026-05-04 07:49 | 46.82268 | 13.42766 | 35111 ft | 449 kts | 149° |
| 2026-05-04 07:50 | 46.77043 | 13.47781 | 35102 ft | 450 kts | 149° |
| 2026-05-04 07:50 | 46.71816 | 13.52792 | 35101 ft | 450 kts | 149° |
| 2026-05-04 07:51 | 46.66587 | 13.57805 | 35097 ft | 450 kts | 149° |
| 2026-05-04 07:51 | 46.61341 | 13.62811 | 35103 ft | 451 kts | 149° |
| 2026-05-04 07:52 | 46.56090 | 13.67806 | 35104 ft | 451 kts | 149° |
| 2026-05-04 07:52 | 46.50847 | 13.72815 | 35108 ft | 452 kts | 148° |
| 2026-05-04 07:54 | 46.31268 | 13.93400 | 35113 ft | 454 kts | 146° |
| 2026-05-04 07:55 | 46.26164 | 13.98667 | 35119 ft | 454 kts | 146° |
| 2026-05-04 07:55 | 46.21025 | 14.03962 | 35118 ft | 454 kts | 146° |
| 2026-05-04 07:56 | 46.15886 | 14.09272 | 35129 ft | 455 kts | 146° |
| 2026-05-04 07:56 | 46.10737 | 14.14591 | 35122 ft | 456 kts | 146° |
| 2026-05-04 07:57 | 46.05580 | 14.19903 | 35116 ft | 456 kts | 146° |
| 2026-05-04 07:57 | 46.00405 | 14.25204 | 35119 ft | 456 kts | 146° |
| 2026-05-04 07:58 | 45.95226 | 14.30501 | 35115 ft | 457 kts | 146° |
| 2026-05-04 07:58 | 45.90053 | 14.35787 | 35112 ft | 456 kts | 146° |
| 2026-05-04 07:59 | 45.84871 | 14.41067 | 35112 ft | 457 kts | 146° |
| 2026-05-04 07:59 | 45.79672 | 14.46344 | 35107 ft | 458 kts | 146° |
| 2026-05-04 08:00 | 45.74466 | 14.51617 | 35106 ft | 458 kts | 146° |
| 2026-05-04 08:02 | 45.53617 | 14.72626 | 35111 ft | 456 kts | 147° |
| 2026-05-04 08:02 | 45.48649 | 14.78359 | 35125 ft | 462 kts | 141° |
| 2026-05-04 08:03 | 45.43739 | 14.84287 | 35133 ft | 463 kts | 141° |
| 2026-05-04 08:03 | 45.38823 | 14.90195 | 35119 ft | 463 kts | 141° |
| 2026-05-04 08:04 | 45.33886 | 14.96108 | 35127 ft | 465 kts | 141° |
| 2026-05-04 08:04 | 45.28945 | 15.02027 | 35114 ft | 465 kts | 141° |
| 2026-05-04 08:05 | 45.24023 | 15.07993 | 35103 ft | 466 kts | 141° |
| 2026-05-04 08:05 | 45.19091 | 15.13970 | 35098 ft | 467 kts | 141° |
| 2026-05-04 08:06 | 45.14149 | 15.19955 | 35096 ft | 467 kts | 141° |
| 2026-05-04 08:06 | 45.09218 | 15.25978 | 35097 ft | 469 kts | 141° |
| 2026-05-04 08:08 | 44.89391 | 15.50084 | 35101 ft | 471 kts | 141° |
| 2026-05-04 08:11 | 44.66929 | 15.77165 | 35093 ft | 474 kts | 141° |
| 2026-05-04 08:11 | 44.59405 | 15.86186 | 35108 ft | 475 kts | 141° |
| 2026-05-04 08:12 | 44.54383 | 15.92199 | 35118 ft | 475 kts | 141° |
| 2026-05-04 08:12 | 44.49338 | 15.98189 | 35132 ft | 475 kts | 142° |
| 2026-05-04 08:13 | 44.44167 | 16.03918 | 35134 ft | 474 kts | 144° |
| 2026-05-04 08:13 | 44.38925 | 16.09495 | 35147 ft | 473 kts | 144° |
| 2026-05-04 08:14 | 44.33699 | 16.15098 | 35144 ft | 473 kts | 143° |
| 2026-05-04 08:16 | 44.12878 | 16.37630 | 35135 ft | 474 kts | 143° |
| 2026-05-04 08:16 | 44.07655 | 16.43233 | 35132 ft | 474 kts | 143° |
| 2026-05-04 08:17 | 44.02420 | 16.48832 | 35151 ft | 475 kts | 143° |
| 2026-05-04 08:17 | 43.97164 | 16.54412 | 35134 ft | 476 kts | 143° |
| 2026-05-04 08:19 | 43.76038 | 16.76572 | 35168 ft | 478 kts | 143° |
| 2026-05-04 08:20 | 43.70732 | 16.82119 | 35152 ft | 478 kts | 143° |
| 2026-05-04 08:20 | 43.65414 | 16.87660 | 35151 ft | 479 kts | 143° |
| 2026-05-04 08:21 | 43.60094 | 16.93194 | 35146 ft | 479 kts | 143° |
| 2026-05-04 08:21 | 43.54768 | 16.98726 | 35150 ft | 479 kts | 143° |
| 2026-05-04 08:22 | 43.49441 | 17.04246 | 35151 ft | 479 kts | 143° |
| 2026-05-04 08:24 | 43.28055 | 17.26249 | 35161 ft | 480 kts | 143° |
| 2026-05-04 08:24 | 43.22692 | 17.31731 | 35165 ft | 481 kts | 143° |
| 2026-05-04 08:25 | 43.17330 | 17.37210 | 35165 ft | 481 kts | 143° |
| 2026-05-04 08:25 | 43.11965 | 17.42683 | 35168 ft | 481 kts | 143° |
| 2026-05-04 08:27 | 42.90424 | 17.64518 | 35155 ft | 483 kts | 143° |
| 2026-05-04 08:28 | 42.84993 | 17.69985 | 35228 ft | 487 kts | 143° |
| 2026-05-04 08:28 | 42.82270 | 17.72724 | 35339 ft | 487 kts | 143° |
| 2026-05-04 08:28 | 42.79541 | 17.75472 | 35482 ft | 488 kts | 143° |
| 2026-05-04 08:29 | 42.76814 | 17.78215 | 35609 ft | 488 kts | 143° |
| 2026-05-04 08:29 | 42.74075 | 17.80961 | 35733 ft | 488 kts | 143° |
| 2026-05-04 08:29 | 42.71345 | 17.83690 | 35851 ft | 488 kts | 143° |
| 2026-05-04 08:31 | 42.52232 | 18.02735 | 36772 ft | 487 kts | 143° |
| 2026-05-04 08:33 | 42.33144 | 18.21616 | 37183 ft | 485 kts | 143° |
| 2026-05-04 08:33 | 42.30412 | 18.24303 | 37181 ft | 485 kts | 143° |
| 2026-05-04 08:35 | 42.08571 | 18.45611 | 37170 ft | 486 kts | 144° |
| 2026-05-04 08:35 | 42.03053 | 18.50897 | 37158 ft | 487 kts | 144° |
| 2026-05-04 08:37 | 41.84607 | 18.68529 | 37158 ft | 490 kts | 144° |
| 2026-05-04 08:38 | 41.79056 | 18.73833 | 37167 ft | 490 kts | 144° |
| 2026-05-04 08:38 | 41.73501 | 18.79130 | 37196 ft | 491 kts | 144° |
| 2026-05-04 08:40 | 41.52352 | 19.02175 | 37184 ft | 491 kts | 136° |
| 2026-05-04 08:41 | 41.47172 | 19.08125 | 37184 ft | 492 kts | 144° |
| 2026-05-04 08:41 | 41.41117 | 19.12304 | 37210 ft | 490 kts | 161° |
| 2026-05-04 08:42 | 41.34704 | 19.15430 | 37179 ft | 492 kts | 161° |
| 2026-05-04 08:42 | 41.28282 | 19.18577 | 37171 ft | 492 kts | 161° |
| 2026-05-04 08:43 | 41.21847 | 19.21711 | 37174 ft | 493 kts | 161° |
| 2026-05-04 08:43 | 41.15390 | 19.24846 | 36954 ft | 495 kts | 161° |
| 2026-05-04 08:43 | 41.12155 | 19.26411 | 36601 ft | 495 kts | 161° |
| 2026-05-04 08:44 | 41.08914 | 19.27977 | 36218 ft | 495 kts | 161° |
| 2026-05-04 08:44 | 41.05679 | 19.29540 | 35833 ft | 496 kts | 161° |
| 2026-05-04 08:46 | 40.82819 | 19.40577 | 33066 ft | 504 kts | 161° |
| 2026-05-04 08:46 | 40.79520 | 19.42155 | 32592 ft | 505 kts | 161° |
| 2026-05-04 08:46 | 40.76216 | 19.43736 | 32127 ft | 506 kts | 161° |
| 2026-05-04 08:46 | 40.72901 | 19.45321 | 31665 ft | 508 kts | 161° |
| 2026-05-04 08:47 | 40.69573 | 19.46912 | 31237 ft | 510 kts | 160° |
| 2026-05-04 08:47 | 40.66231 | 19.48511 | 30798 ft | 512 kts | 160° |
| 2026-05-04 08:47 | 40.62878 | 19.50116 | 30362 ft | 513 kts | 160° |
| 2026-05-04 08:47 | 40.59515 | 19.51723 | 29866 ft | 515 kts | 160° |
| 2026-05-04 08:48 | 40.56154 | 19.53327 | 29361 ft | 514 kts | 160° |
| 2026-05-04 08:48 | 40.52815 | 19.54914 | 28864 ft | 505 kts | 160° |
| 2026-05-04 08:48 | 40.49534 | 19.56470 | 28367 ft | 497 kts | 160° |
| 2026-05-04 08:48 | 40.46305 | 19.58001 | 27887 ft | 490 kts | 160° |
| 2026-05-04 08:49 | 40.43117 | 19.59514 | 27418 ft | 485 kts | 160° |
| 2026-05-04 08:50 | 40.24672 | 19.68211 | 24738 ft | 452 kts | 160° |
| 2026-05-04 08:50 | 40.21730 | 19.69595 | 24319 ft | 446 kts | 160° |
| 2026-05-04 08:51 | 40.18833 | 19.70957 | 23906 ft | 440 kts | 160° |
| 2026-05-04 08:51 | 40.15964 | 19.72305 | 23439 ft | 435 kts | 160° |
| 2026-05-04 08:51 | 40.13130 | 19.73638 | 22953 ft | 430 kts | 160° |
| 2026-05-04 08:51 | 40.10366 | 19.74933 | 22474 ft | 426 kts | 160° |
| 2026-05-04 08:52 | 40.07588 | 19.76231 | 21997 ft | 422 kts | 160° |
| 2026-05-04 08:52 | 40.04838 | 19.77519 | 21522 ft | 419 kts | 159° |
| 2026-05-04 08:52 | 40.02070 | 19.78813 | 21061 ft | 415 kts | 159° |
| 2026-05-04 08:52 | 39.99396 | 19.80059 | 20643 ft | 412 kts | 159° |
| 2026-05-04 08:53 | 39.96664 | 19.81317 | 20186 ft | 410 kts | 162° |
| 2026-05-04 08:54 | 39.81428 | 19.70276 | 16872 ft | 378 kts | 236° |
| 2026-05-04 08:55 | 39.79808 | 19.67598 | 16150 ft | 374 kts | 236° |
| 2026-05-04 08:55 | 39.78064 | 19.65119 | 15476 ft | 371 kts | 224° |
| 2026-05-04 08:55 | 39.75991 | 19.63202 | 15079 ft | 362 kts | 213° |
| 2026-05-04 08:55 | 39.73831 | 19.61557 | 14712 ft | 358 kts | 213° |
| 2026-05-04 08:57 | 39.59303 | 19.53125 | 11687 ft | 310 kts | 161° |
| 2026-05-04 09:01 | 39.39878 | 19.76961 | 6598 ft | 255 kts | 132° |
| 2026-05-04 09:01 | 39.38658 | 19.78583 | 6215 ft | 248 kts | 132° |
| 2026-05-04 09:01 | 39.37476 | 19.80176 | 5840 ft | 242 kts | 130° |
| 2026-05-04 09:01 | 39.36381 | 19.81801 | 5457 ft | 238 kts | 128° |
| 2026-05-04 09:02 | 39.35326 | 19.83436 | 5082 ft | 236 kts | 128° |
| 2026-05-04 09:02 | 39.34286 | 19.85067 | 4705 ft | 235 kts | 128° |
| 2026-05-04 09:02 | 39.33248 | 19.86705 | 4323 ft | 237 kts | 128° |
| 2026-05-04 09:02 | 39.32198 | 19.88365 | 3944 ft | 240 kts | 128° |
| 2026-05-04 09:03 | 39.31238 | 19.90127 | 3588 ft | 239 kts | 111° |
| 2026-05-04 09:03 | 39.30901 | 19.92149 | 3472 ft | 226 kts | 85° |
| 2026-05-04 09:03 | 39.31238 | 19.94056 | 3345 ft | 213 kts | 59° |
| 2026-05-04 09:03 | 39.32105 | 19.95521 | 3212 ft | 201 kts | 36° |
| 2026-05-04 09:04 | 39.33278 | 19.96415 | 3085 ft | 193 kts | 21° |
| 2026-05-04 09:04 | 39.34481 | 19.97133 | 2988 ft | 190 kts | 21° |
| 2026-05-04 09:04 | 39.35688 | 19.97811 | 2916 ft | 187 kts | 14° |
| 2026-05-04 09:04 | 39.36959 | 19.98105 | 2917 ft | 185 kts | 359° |
| 2026-05-04 09:05 | 39.38240 | 19.98048 | 2918 ft | 184 kts | 355° |
| 2026-05-04 09:05 | 39.39525 | 19.97974 | 2918 ft | 185 kts | 356° |
| 2026-05-04 09:05 | 39.40808 | 19.97900 | 2915 ft | 184 kts | 355° |
| 2026-05-04 09:05 | 39.42089 | 19.97815 | 2924 ft | 185 kts | 352° |
| 2026-05-04 09:06 | 39.43326 | 19.97422 | 2908 ft | 183 kts | 343° |
| 2026-05-04 09:07 | 39.52062 | 19.94105 | 1928 ft | 198 kts | 342° |
| 2026-05-04 09:08 | 39.53369 | 19.93524 | 1561 ft | 198 kts | 340° |
| 2026-05-04 09:08 | 39.54645 | 19.92904 | 1253 ft | 191 kts | 339° |
| 2026-05-04 09:08 | 39.55862 | 19.92358 | 999 ft | 180 kts | 345° |
| 2026-05-04 09:08 | 39.57019 | 19.91999 | 749 ft | 164 kts | 349° |
| 2026-05-04 09:09 | 39.58129 | 19.91732 | 376 ft | 161 kts | 352° |
| 2026-05-04 09:09 | 39.59216 | 19.91464 | 67 ft | 155 kts | 350° |
| 2026-05-04 09:09 | 39.60192 | 19.91225 | 22 ft | 123 kts | 348° |
| 2026-05-04 09:09 | 39.60748 | 19.91070 | 20 ft | 50 kts | 349° |
| 2026-05-04 09:10 | 39.60986 | 19.91007 | 19 ft | 16 kts | 348° |
| 2026-05-04 09:10 | 39.61051 | 19.91078 | 19 ft | 8 kts | 57° |
| 2026-05-04 09:10 | 39.61033 | 19.91126 | 20 ft | 6 kts | 157° |
| 2026-05-04 09:10 | 39.61019 | 19.91131 | 19 ft | 0 kts | 166° |
| 2026-05-04 09:12 | 39.61012 | 19.91133 | 19 ft | 2 kts | 167° |
| 2026-05-04 09:14 | 39.60760 | 19.91329 | 18 ft | 1 kts | 78° |
| 2026-05-04 09:14 | 39.60760 | 19.91330 | 18 ft | 0 kts | 78° |
| 2026-05-04 09:14 | 39.60760 | 19.91331 | 18 ft | 1 kts | 79° |
| 2026-05-04 09:14 | 39.60761 | 19.91332 | 18 ft | 0 kts | 79° |
| 2026-05-04 09:15 | 39.60761 | 19.91335 | 18 ft | 1 kts | 79° |
| 2026-05-04 09:15 | 39.60762 | 19.91340 | 18 ft | 0 kts | 79° |
| 2026-05-04 09:17 | 39.60762 | 19.91341 | 18 ft | 0 kts | 80° |